Mills, New Mexico
Current Conditions -  °F | °C
As of 8:53 PM on Sunday 25 Jan 2015 (Local Time) from KRTN Reporting Station
Clear Clear  
Wind Chill: 25°   Ceiling: Unl
Heat Index: 30°   Visibility: 10mi
Dew Point: 23°   Wind: 5mph
Humidity: 75%   Direction: 350°N
Pressure: 30.28"   Gusts: NA
Location:  36.08°N, 104.26°W
Report Text: KRTN 260353Z AUTO 35004KT 10SM CLR M01/M05 A3028 RMK AO2 SLP266 T10111050
Loading
Personal Weather Stations






























Interactive Weather Map New forecast layout! Learn more

10-Day Weather Forecast

Advertisements
Track Severe Weather on mobile